createdAt,value
2022-11-08T00:04:00.827Z,10.82
2022-11-08T00:06:47.141Z,11.73
2022-11-08T00:09:33.686Z,11.45
2022-11-08T00:12:19.740Z,11.15
2022-11-08T00:14:47.387Z,11.38
2022-11-08T00:17:15.634Z,11.23
2022-11-08T00:19:43.087Z,10.73
2022-11-08T00:22:11.249Z,10.70
2022-11-08T00:24:38.655Z,11.00
2022-11-08T00:27:07.462Z,10.63
2022-11-08T00:29:36.053Z,10.15
2022-11-08T00:32:04.642Z,10.00
2022-11-08T00:34:34.846Z,10.13
2022-11-08T00:37:02.489Z,10.52
2022-11-08T00:39:29.786Z,9.02
2022-11-08T00:41:57.132Z,10.07
2022-11-08T00:44:24.752Z,11.45
2022-11-08T00:46:52.198Z,11.23
2022-11-08T00:49:19.659Z,10.70
2022-11-08T00:51:47.336Z,10.15
2022-11-08T00:54:16.272Z,10.27
2022-11-08T00:56:43.748Z,10.57
2022-11-08T00:59:12.803Z,10.20
2022-11-08T01:01:40.522Z,10.80
2022-11-08T01:04:08.215Z,10.85
2022-11-08T01:06:35.840Z,10.45
2022-11-08T01:09:04.893Z,9.02
2022-11-08T01:11:32.212Z,11.48
2022-11-08T01:14:00.584Z,10.32
2022-11-08T01:16:29.649Z,11.43
2022-11-08T01:18:57.120Z,11.05
2022-11-08T01:21:24.877Z,12.02
2022-11-08T01:23:52.279Z,9.73
2022-11-08T01:26:21.359Z,11.05
2022-11-08T01:28:49.092Z,10.40
2022-11-08T01:31:21.374Z,11.40
2022-11-08T01:33:51.500Z,11.23
2022-11-08T01:36:21.255Z,11.10
2022-11-08T01:38:48.852Z,11.32
2022-11-08T01:41:16.387Z,11.35
2022-11-08T01:43:45.646Z,11.85
2022-11-08T01:46:19.639Z,11.15
2022-11-08T01:48:59.110Z,10.80
2022-11-08T01:51:29.556Z,10.70
2022-11-08T01:53:57.365Z,11.23
2022-11-08T01:56:24.711Z,11.75
2022-11-08T01:58:52.300Z,12.95
2022-11-08T02:01:19.670Z,12.13
2022-11-08T02:03:47.458Z,11.20
2022-11-08T02:06:14.811Z,11.63
2022-11-08T02:08:42.946Z,10.15
2022-11-08T02:11:13.101Z,10.95
2022-11-08T02:13:40.421Z,10.93
2022-11-08T02:16:11.761Z,10.57
2022-11-08T02:18:39.368Z,9.65
2022-11-08T02:21:21.300Z,9.45
2022-11-08T02:23:58.910Z,10.15
2022-11-08T02:26:29.448Z,10.48
2022-11-08T02:28:57.194Z,9.63
2022-11-08T02:31:24.514Z,9.70
2022-11-08T02:33:51.859Z,9.32
2022-11-08T02:36:22.710Z,9.82
2022-11-08T02:38:54.706Z,10.98
2022-11-08T02:41:22.283Z,9.77
2022-11-08T02:43:49.605Z,9.80
2022-11-08T02:46:16.934Z,10.95
2022-11-08T02:48:44.546Z,10.10
2022-11-08T02:51:11.867Z,10.52
2022-11-08T02:53:39.206Z,10.20
2022-11-08T02:56:06.952Z,8.93
2022-11-08T02:58:34.247Z,10.00
2022-11-08T03:01:01.694Z,11.15
2022-11-08T03:03:29.389Z,9.35
2022-11-08T03:05:57.160Z,9.80
2022-11-08T03:08:24.448Z,10.45
2022-11-08T03:10:52.075Z,10.23
2022-11-08T03:13:19.392Z,10.43
2022-11-08T03:15:46.734Z,9.88
2022-11-08T03:18:14.463Z,10.50
2022-11-08T03:20:41.922Z,10.85
2022-11-08T03:23:09.279Z,13.02
2022-11-08T03:25:36.858Z,10.60
2022-11-08T03:28:08.604Z,10.80
2022-11-08T03:30:36.223Z,10.88
2022-11-08T03:33:03.853Z,12.90
2022-11-08T03:35:31.585Z,14.30
2022-11-08T03:37:58.959Z,17.20
2022-11-08T03:40:26.738Z,20.37
2022-11-08T03:42:56.206Z,18.62
2022-11-08T03:45:23.505Z,17.80
2022-11-08T03:47:51.159Z,16.67
2022-11-08T03:50:18.606Z,19.65
2022-11-08T03:52:54.155Z,21.27
2022-11-08T03:55:23.269Z,22.00
2022-11-08T03:57:50.727Z,18.40
2022-11-08T04:00:20.207Z,17.50
2022-11-08T04:02:47.803Z,17.63
2022-11-08T04:05:15.317Z,14.70
2022-11-08T04:07:43.199Z,15.75
2022-11-08T04:10:10.975Z,15.18
2022-11-08T04:13:02.795Z,15.18
2022-11-08T04:15:31.030Z,15.43
2022-11-08T04:18:18.247Z,16.70
2022-11-08T04:21:05.893Z,14.43
2022-11-08T04:23:34.405Z,15.63
2022-11-08T04:26:04.049Z,15.00
2022-11-08T04:28:32.252Z,14.95
2022-11-08T04:31:02.800Z,15.10
2022-11-08T04:33:30.524Z,15.18
2022-11-08T04:36:04.146Z,15.50
2022-11-08T04:38:31.978Z,13.85
2022-11-08T04:41:06.571Z,15.05
2022-11-08T04:43:34.173Z,13.68
2022-11-08T04:46:09.103Z,13.88
2022-11-08T04:48:36.704Z,15.85
2022-11-08T04:51:05.324Z,19.48
2022-11-08T04:53:32.666Z,17.10
2022-11-08T04:56:01.945Z,16.50
2022-11-08T04:58:32.828Z,16.05
2022-11-08T05:01:01.711Z,14.98
2022-11-08T05:03:29.814Z,16.05
2022-11-08T05:06:01.219Z,17.93
2022-11-08T05:08:28.816Z,16.37
2022-11-08T05:11:03.202Z,19.70
2022-11-08T05:13:30.835Z,17.45
2022-11-08T05:16:02.266Z,18.57
2022-11-08T05:18:30.113Z,18.60
2022-11-08T05:21:17.039Z,16.87
2022-11-08T05:23:44.413Z,16.85
2022-11-08T05:26:11.988Z,17.58
2022-11-08T05:28:40.488Z,18.00
2022-11-08T05:31:07.915Z,17.93
2022-11-08T05:33:35.500Z,16.87
2022-11-08T05:36:06.001Z,15.60
2022-11-08T05:38:33.784Z,16.05
2022-11-08T05:41:05.683Z,17.13
2022-11-08T05:43:33.019Z,16.85
2022-11-08T05:46:00.717Z,17.45
2022-11-08T05:48:28.040Z,15.47
2022-11-08T05:50:55.483Z,16.62
2022-11-08T05:53:23.132Z,15.57
2022-11-08T05:55:50.462Z,15.00
2022-11-08T05:58:17.805Z,18.70
2022-11-08T06:00:45.392Z,17.60
2022-11-08T06:03:13.122Z,17.55
2022-11-08T06:05:40.478Z,18.70
2022-11-08T06:08:07.832Z,14.45
2022-11-08T06:10:35.424Z,14.65
2022-11-08T06:13:02.758Z,15.57
2022-11-08T06:15:30.091Z,16.20
2022-11-08T06:18:03.073Z,16.60
2022-11-08T06:20:30.610Z,17.80
2022-11-08T06:22:58.172Z,19.55
2022-11-08T06:25:25.497Z,19.92
2022-11-08T06:27:52.857Z,22.02
2022-11-08T06:30:20.438Z,24.42
2022-11-08T06:32:47.839Z,22.00
2022-11-08T06:35:15.980Z,21.10
2022-11-08T06:37:44.494Z,21.93
2022-11-08T06:40:11.976Z,20.95
2022-11-08T06:42:39.368Z,25.15
2022-11-08T06:45:07.417Z,24.63
2022-11-08T06:47:34.809Z,23.62
2022-11-08T06:50:02.173Z,23.92
2022-11-08T06:52:29.831Z,26.27
2022-11-08T06:54:57.151Z,28.58
2022-11-08T06:57:24.529Z,26.05
2022-11-08T06:59:52.136Z,31.30
2022-11-08T07:02:19.784Z,32.30
2022-11-08T07:04:47.183Z,29.83
2022-11-08T07:07:15.004Z,22.05
2022-11-08T07:09:43.809Z,24.50
2022-11-08T07:12:11.968Z,20.12
2022-11-08T07:14:39.612Z,18.92
2022-11-08T07:17:06.978Z,14.63
2022-11-08T07:19:34.339Z,16.65
2022-11-08T07:22:01.949Z,15.50
2022-11-08T07:24:29.319Z,14.07
2022-11-08T07:26:56.674Z,15.35
2022-11-08T07:29:24.247Z,17.08
2022-11-08T07:31:51.673Z,16.58
2022-11-08T07:34:19.247Z,15.52
2022-11-08T07:36:47.072Z,17.23
2022-11-08T07:39:14.391Z,15.48
2022-11-08T07:41:41.794Z,20.08
2022-11-08T07:44:09.397Z,19.05
2022-11-08T07:46:36.840Z,24.10
2022-11-08T07:49:04.174Z,16.52
2022-11-08T07:51:31.801Z,17.45
2022-11-08T07:54:03.014Z,14.70
2022-11-08T07:56:30.898Z,17.05
2022-11-08T07:58:58.497Z,14.27
2022-11-08T08:01:25.899Z,14.68
2022-11-08T08:03:53.588Z,16.48
2022-11-08T08:06:22.051Z,14.82
2022-11-08T08:08:49.389Z,25.40
2022-11-08T08:11:17.084Z,17.55
2022-11-08T08:13:44.468Z,15.45
2022-11-08T08:16:11.812Z,15.95
2022-11-08T08:18:41.415Z,18.17
2022-11-08T08:21:08.722Z,16.25
2022-11-08T08:23:36.090Z,18.00
2022-11-08T08:26:03.680Z,19.83
2022-11-08T08:28:31.116Z,21.15
2022-11-08T08:30:58.464Z,24.25
2022-11-08T08:33:29.272Z,21.80
2022-11-08T08:35:57.217Z,21.90
2022-11-08T08:38:24.620Z,22.25
2022-11-08T08:40:52.353Z,18.23
2022-11-08T08:43:20.425Z,20.05
2022-11-08T08:45:48.942Z,20.83
2022-11-08T08:48:16.655Z,21.50
2022-11-08T08:50:44.000Z,21.42
2022-11-08T08:53:14.016Z,20.40
2022-11-08T08:55:43.719Z,20.62
2022-11-08T08:58:12.051Z,18.77
2022-11-08T09:03:26.994Z,22.10
2022-11-08T09:05:54.321Z,20.37
2022-11-08T09:08:21.739Z,20.50
2022-11-08T09:10:53.669Z,19.70
2022-11-08T09:13:21.475Z,22.92
2022-11-08T09:15:49.259Z,23.00
2022-11-08T09:18:17.648Z,22.73
2022-11-08T09:20:45.083Z,23.52
2022-11-08T09:23:12.807Z,26.42
2022-11-08T09:25:40.301Z,24.00
2022-11-08T09:28:09.336Z,23.92
2022-11-08T09:30:36.948Z,24.10
2022-11-08T09:33:05.246Z,28.73
2022-11-08T09:35:33.426Z,26.55
2022-11-08T09:38:01.070Z,27.70
2022-11-08T09:40:43.102Z,29.63
2022-11-08T09:43:50.476Z,28.02
2022-11-08T09:46:53.875Z,27.05
2022-11-08T09:49:22.511Z,25.52
2022-11-08T09:51:49.955Z,25.30
2022-11-08T09:54:37.463Z,27.13
2022-11-08T09:57:05.450Z,27.67
2022-11-08T09:59:47.996Z,25.65
2022-11-08T10:02:18.214Z,31.77
2022-11-08T10:05:04.464Z,31.67
2022-11-08T10:07:56.179Z,30.92
2022-11-08T10:10:36.076Z,32.70
2022-11-08T10:13:26.753Z,34.40
2022-11-08T10:16:17.007Z,36.00
2022-11-08T10:19:26.812Z,34.60
2022-11-08T10:22:07.875Z,32.03
2022-11-08T10:24:39.043Z,36.78
2022-11-08T10:27:13.791Z,40.38
2022-11-08T10:29:43.646Z,38.17
2022-11-08T10:32:12.973Z,38.63
2022-11-08T10:35:26.742Z,35.50
2022-11-08T10:37:54.788Z,37.63
2022-11-08T10:40:36.767Z,41.28
2022-11-08T10:43:17.283Z,34.40
2022-11-08T10:45:44.692Z,36.03
2022-11-08T10:48:12.476Z,32.75
2022-11-08T10:50:46.701Z,33.15
2022-11-08T10:53:35.047Z,32.75
2022-11-08T10:56:04.353Z,33.42
2022-11-08T10:58:41.951Z,33.08
2022-11-08T11:01:25.775Z,32.15
2022-11-08T11:03:53.588Z,35.65
2022-11-08T11:06:30.829Z,32.67
2022-11-08T11:09:00.029Z,30.27
2022-11-08T11:11:33.708Z,30.08
2022-11-08T11:14:21.793Z,31.20
2022-11-08T11:17:14.320Z,32.17
2022-11-08T11:19:44.374Z,33.08
2022-11-08T11:22:12.236Z,32.58
2022-11-08T11:24:50.734Z,32.60
2022-11-08T11:27:36.373Z,32.90
2022-11-08T11:30:33.814Z,33.37
2022-11-08T11:33:23.504Z,32.75
2022-11-08T11:36:13.862Z,34.17
2022-11-08T11:38:55.488Z,33.85
2022-11-08T11:41:26.405Z,33.95
2022-11-08T11:44:03.837Z,34.83
2022-11-08T11:47:02.327Z,32.70
2022-11-08T11:49:30.883Z,32.95
2022-11-08T11:51:58.271Z,35.25
2022-11-08T11:54:30.472Z,32.55
2022-11-08T11:57:21.280Z,32.95
2022-11-08T12:00:01.790Z,32.13
2022-11-08T12:03:01.619Z,33.58
2022-11-08T12:05:31.119Z,29.90
2022-11-08T12:08:10.386Z,29.20
2022-11-08T12:11:03.542Z,31.50
2022-11-08T12:13:43.510Z,31.12
2022-11-08T12:16:31.841Z,33.65
2022-11-08T12:19:07.420Z,35.22
2022-11-08T12:21:59.804Z,32.85
2022-11-08T12:24:33.891Z,34.30
2022-11-08T12:27:26.023Z,28.95
2022-11-08T12:30:08.766Z,32.17
2022-11-08T12:32:58.655Z,32.83
2022-11-08T12:35:51.562Z,29.17
2022-11-08T12:38:33.292Z,26.95
2022-11-08T12:41:21.994Z,28.65
2022-11-08T12:44:04.729Z,29.85
2022-11-08T12:46:34.426Z,27.33
2022-11-08T12:49:26.956Z,28.00
2022-11-08T12:52:17.502Z,27.08
2022-11-08T12:54:57.369Z,27.42
2022-11-08T12:57:28.357Z,26.02
2022-11-08T13:00:02.346Z,29.80
2022-11-08T13:02:38.885Z,27.42
2022-11-08T13:05:06.365Z,28.33
2022-11-08T13:07:35.449Z,27.05
2022-11-08T13:10:23.067Z,29.02
2022-11-08T13:13:07.933Z,28.15
2022-11-08T13:15:35.372Z,29.10
2022-11-08T13:18:11.540Z,26.00
2022-11-08T13:20:46.171Z,28.20
2022-11-08T13:23:15.380Z,28.17
2022-11-08T13:25:43.374Z,28.60
2022-11-08T13:28:36.676Z,28.58
2022-11-08T13:31:27.329Z,28.73
2022-11-08T13:34:00.742Z,29.58
2022-11-08T13:36:34.900Z,29.17
2022-11-08T13:39:18.748Z,28.05
2022-11-08T13:42:25.976Z,26.42
2022-11-08T13:44:56.368Z,29.67
2022-11-08T13:47:32.942Z,27.65
2022-11-08T13:50:28.439Z,25.85
2022-11-08T13:53:20.800Z,26.10
2022-11-08T13:55:49.814Z,25.83
2022-11-08T13:58:54.555Z,28.87
2022-11-08T14:01:21.816Z,25.45
2022-11-08T14:03:49.389Z,26.50
2022-11-08T14:06:25.726Z,27.73
2022-11-08T14:09:08.728Z,26.05
2022-11-08T14:11:52.307Z,30.33
2022-11-08T14:14:44.673Z,28.02
2022-11-08T14:17:39.771Z,28.12
2022-11-08T14:20:18.083Z,26.90
2022-11-08T14:22:49.889Z,24.80
2022-11-08T14:25:19.346Z,27.35
2022-11-08T14:27:46.662Z,28.33
2022-11-08T14:30:17.452Z,28.33
2022-11-08T14:32:45.156Z,28.17
2022-11-08T14:35:24.428Z,26.10
2022-11-08T14:37:55.178Z,27.73
2022-11-08T14:40:27.771Z,25.75
2022-11-08T14:42:55.593Z,27.17
2022-11-08T14:45:25.884Z,24.98
2022-11-08T14:47:57.031Z,27.33
2022-11-08T14:50:42.978Z,25.60
2022-11-08T14:53:21.611Z,24.63
2022-11-08T14:56:16.789Z,25.80
2022-11-08T14:58:44.502Z,26.58
2022-11-08T15:01:12.471Z,27.65
2022-11-08T15:03:45.425Z,27.75
2022-11-08T15:06:14.408Z,27.00
2022-11-08T15:08:51.839Z,26.98
2022-11-08T15:11:30.631Z,26.95
2022-11-08T15:14:05.677Z,26.37
2022-11-08T15:16:40.253Z,27.50
2022-11-08T15:19:34.791Z,29.98
2022-11-08T15:22:22.021Z,25.35
2022-11-08T15:24:51.223Z,30.70
2022-11-08T15:27:18.809Z,29.73
2022-11-08T15:29:54.284Z,30.35
2022-11-08T15:32:22.052Z,30.75
2022-11-08T15:34:49.369Z,29.50
2022-11-08T15:37:34.233Z,29.08
2022-11-08T15:40:28.182Z,31.70
2022-11-08T15:42:55.564Z,36.35
2022-11-08T15:45:28.877Z,37.22
2022-11-08T15:48:08.513Z,37.42
2022-11-08T15:50:36.517Z,37.10
2022-11-08T15:53:04.018Z,36.58
2022-11-08T15:55:35.203Z,43.05
2022-11-08T15:58:02.993Z,40.03
2022-11-08T16:00:32.002Z,39.28
2022-11-08T16:02:59.619Z,38.80
2022-11-08T16:05:28.691Z,38.35
2022-11-08T16:07:56.043Z,36.88
2022-11-08T16:10:34.816Z,40.75
2022-11-08T16:13:02.590Z,41.92
2022-11-08T16:15:32.276Z,38.50
2022-11-08T16:18:00.594Z,44.42
2022-11-08T16:20:31.664Z,43.58
2022-11-08T16:23:00.727Z,43.63
2022-11-08T16:25:28.536Z,40.35
2022-11-08T16:28:02.644Z,41.90
2022-11-08T16:30:32.507Z,43.05
2022-11-08T16:33:01.013Z,45.67
2022-11-08T16:35:28.392Z,43.13
2022-11-08T16:37:56.003Z,48.20
2022-11-08T16:40:24.232Z,44.10
2022-11-08T16:42:52.655Z,45.45
2022-11-08T16:45:37.246Z,38.15
2022-11-08T16:48:14.901Z,38.17
2022-11-08T16:50:42.615Z,38.85
2022-11-08T16:53:20.249Z,37.47
2022-11-08T16:55:47.987Z,38.67
2022-11-08T16:58:15.527Z,40.47
2022-11-08T17:00:43.374Z,39.58
2022-11-08T17:03:21.563Z,37.85
2022-11-08T17:05:49.067Z,37.70
2022-11-08T17:08:17.112Z,40.38
2022-11-08T17:10:44.726Z,44.35
2022-11-08T17:13:16.299Z,43.13
2022-11-08T17:15:44.190Z,36.00
2022-11-08T17:18:18.800Z,38.72
2022-11-08T17:20:46.780Z,39.25
2022-11-08T17:23:14.203Z,40.65
2022-11-08T17:25:43.066Z,39.35
2022-11-08T17:28:11.820Z,42.55
2022-11-08T17:30:44.216Z,44.15
2022-11-08T17:33:12.791Z,43.95
2022-11-08T17:35:43.862Z,45.67
2022-11-08T17:38:12.788Z,47.33
2022-11-08T17:40:42.311Z,42.58
2022-11-08T17:43:09.939Z,38.95
2022-11-08T17:45:37.553Z,47.15
2022-11-08T17:48:04.911Z,38.28
2022-11-08T17:50:32.268Z,40.83
2022-11-08T17:52:59.931Z,42.47
2022-11-08T17:55:27.269Z,42.10
2022-11-08T17:57:54.584Z,40.63
2022-11-08T18:00:22.184Z,43.45
2022-11-08T18:02:49.778Z,41.30
2022-11-08T18:05:17.206Z,41.95
2022-11-08T18:07:45.125Z,39.15
2022-11-08T18:10:12.769Z,36.35
2022-11-08T18:12:40.092Z,38.67
2022-11-08T18:15:07.877Z,40.80
2022-11-08T18:17:35.929Z,42.45
2022-11-08T18:20:03.382Z,39.60
2022-11-08T18:22:30.732Z,39.42
2022-11-08T18:24:58.300Z,45.35
2022-11-08T18:27:25.819Z,42.80
2022-11-08T18:29:53.122Z,47.28
2022-11-08T18:32:20.732Z,44.67
2022-11-08T18:34:48.936Z,43.75
2022-11-08T18:37:16.329Z,40.72
2022-11-08T18:39:43.947Z,39.75
2022-11-08T18:42:11.272Z,42.95
2022-11-08T18:44:38.601Z,40.38
2022-11-08T18:47:06.222Z,43.50
2022-11-08T18:49:33.566Z,38.17
2022-11-08T18:52:01.787Z,42.22
2022-11-08T18:54:29.413Z,41.42
2022-11-08T18:56:56.770Z,39.30
2022-11-08T18:59:24.105Z,43.87
2022-11-08T19:01:51.755Z,42.83
2022-11-08T19:04:19.132Z,42.13
2022-11-08T19:06:51.503Z,43.63
2022-11-08T19:09:22.261Z,43.10
2022-11-08T19:11:49.611Z,44.95
2022-11-08T19:14:17.023Z,38.80
2022-11-08T19:16:44.669Z,44.78
2022-11-08T19:19:12.099Z,44.42
2022-11-08T19:21:41.766Z,44.40
2022-11-08T19:24:11.003Z,43.08
2022-11-08T19:26:41.386Z,45.15
2022-11-08T19:29:10.690Z,39.97
2022-11-08T19:31:39.010Z,42.25
2022-11-08T19:34:06.419Z,40.08
2022-11-08T19:36:34.261Z,41.88
2022-11-08T19:39:01.633Z,43.90
2022-11-08T19:41:29.023Z,41.28
2022-11-08T19:43:56.696Z,41.15
2022-11-08T19:46:26.767Z,44.15
2022-11-08T19:48:54.080Z,41.03
2022-11-08T19:51:23.354Z,45.12
2022-11-08T19:53:50.803Z,47.42
2022-11-08T19:56:18.825Z,39.53
2022-11-08T19:58:46.488Z,42.20
2022-11-08T20:01:17.360Z,46.25
2022-11-08T20:03:45.441Z,44.58
2022-11-08T20:06:14.795Z,44.38
2022-11-08T20:08:42.159Z,46.17
2022-11-08T20:11:13.808Z,45.05
2022-11-08T20:13:41.271Z,44.75
2022-11-08T20:16:20.085Z,45.12
2022-11-08T20:18:47.723Z,43.20
2022-11-08T20:21:15.959Z,44.75
2022-11-08T20:23:43.506Z,42.72
2022-11-08T20:26:19.529Z,47.08
2022-11-08T20:28:56.003Z,48.63
2022-11-08T20:31:24.422Z,46.13
2022-11-08T20:33:55.265Z,41.95
2022-11-08T20:36:23.484Z,43.83
2022-11-08T20:38:56.226Z,44.70
2022-11-08T20:41:23.694Z,41.67
2022-11-08T20:43:51.291Z,46.67
2022-11-08T20:46:19.730Z,42.55
2022-11-08T20:48:51.435Z,43.70
2022-11-08T20:51:19.930Z,45.30
2022-11-08T20:53:47.414Z,46.75
2022-11-08T20:56:19.329Z,44.58
2022-11-08T20:58:47.699Z,41.97
2022-11-08T21:01:17.650Z,42.58
2022-11-08T21:03:45.670Z,44.20
2022-11-08T21:06:16.106Z,42.33
2022-11-08T21:08:59.267Z,43.08
2022-11-08T21:11:30.542Z,44.08
2022-11-08T21:13:58.104Z,42.58
2022-11-08T21:16:47.008Z,41.83
2022-11-08T21:19:13.185Z,42.15
2022-11-08T21:21:40.595Z,44.97
2022-11-08T21:24:08.121Z,43.42
2022-11-08T21:26:36.756Z,42.97
2022-11-08T21:29:04.959Z,45.75
2022-11-08T21:31:32.826Z,38.35
2022-11-08T21:34:00.594Z,41.33
2022-11-08T21:36:29.206Z,42.78
2022-11-08T21:38:56.665Z,42.85
2022-11-08T21:41:24.263Z,39.88
2022-11-08T21:43:51.621Z,40.00
2022-11-08T21:46:23.270Z,40.63
2022-11-08T21:49:11.427Z,41.65
2022-11-08T21:51:38.767Z,42.78
2022-11-08T21:54:06.574Z,39.40
2022-11-08T21:56:34.297Z,42.08
2022-11-08T21:59:01.697Z,46.00
2022-11-08T22:01:30.926Z,47.25
2022-11-08T22:03:59.473Z,40.08
2022-11-08T22:06:27.605Z,43.00
2022-11-08T22:08:55.003Z,42.05
2022-11-08T22:11:22.575Z,41.37
2022-11-08T22:13:49.918Z,45.12
2022-11-08T22:16:17.289Z,43.00
2022-11-08T22:21:38.024Z,43.08
2022-11-08T22:24:09.670Z,41.63
2022-11-08T22:26:37.326Z,42.58
2022-11-08T22:29:04.772Z,40.65
2022-11-08T22:31:32.450Z,39.47
2022-11-08T22:33:59.893Z,39.63
2022-11-08T22:36:27.798Z,38.67
2022-11-08T22:38:55.622Z,41.95
2022-11-08T22:41:23.069Z,43.83
2022-11-08T22:43:50.463Z,40.67
2022-11-08T22:46:18.123Z,39.58
2022-11-08T22:48:45.585Z,41.40
2022-11-08T22:51:13.031Z,45.25
2022-11-08T22:53:41.343Z,40.85
2022-11-08T22:56:11.469Z,42.40
2022-11-08T22:58:39.398Z,44.97
2022-11-08T23:01:13.918Z,44.20
2022-11-08T23:03:43.637Z,42.85
2022-11-08T23:06:11.233Z,44.38
2022-11-08T23:08:38.786Z,44.25
2022-11-08T23:11:25.092Z,47.10
2022-11-08T23:14:11.539Z,42.95
2022-11-08T23:16:40.496Z,46.95
2022-11-08T23:19:37.632Z,43.40
2022-11-08T23:22:24.747Z,41.97
2022-11-08T23:24:52.337Z,44.03
2022-11-08T23:27:38.669Z,39.80
2022-11-08T23:30:25.544Z,39.28
2022-11-08T23:32:52.911Z,40.47
2022-11-08T23:35:20.707Z,37.88
2022-11-08T23:37:48.101Z,36.33
2022-11-08T23:40:35.084Z,43.15
2022-11-08T23:43:24.600Z,40.00
2022-11-08T23:45:51.962Z,38.05
2022-11-08T23:48:19.637Z,43.03
2022-11-08T23:50:53.864Z,38.85
2022-11-08T23:53:22.497Z,37.83
2022-11-08T23:55:50.048Z,40.88
2022-11-08T23:58:17.957Z,42.33
